createdAt,value
2019-04-22T06:51:37.089Z,50.30
2019-04-22T06:54:08.484Z,51.90
2019-04-22T06:56:43.122Z,52.40
2019-04-22T06:59:11.911Z,51.40
2019-04-22T07:01:46.873Z,50.00
2019-04-22T07:04:14.871Z,50.20
2019-04-22T07:07:04.123Z,50.40
2019-04-22T07:11:36.314Z,50.10
2019-04-22T07:14:10.548Z,49.70
2019-04-22T07:16:43.562Z,49.90
2019-04-22T07:19:13.875Z,50.30
2019-04-22T07:21:44.004Z,49.80
2019-04-22T07:24:27.697Z,49.30
2019-04-22T07:26:46.126Z,49.20
2019-04-22T07:29:12.719Z,48.70
2019-04-22T07:31:53.047Z,48.50
2019-04-22T07:34:24.900Z,48.10
2019-04-22T07:36:56.586Z,48.00
2019-04-22T07:39:23.131Z,48.80
2019-04-22T07:41:51.679Z,48.10
2019-04-22T07:44:25.831Z,47.90
2019-04-22T07:47:08.408Z,47.10
2019-04-22T07:49:33.792Z,49.30
2019-04-22T07:52:00.926Z,47.90
2019-04-22T07:54:29.306Z,46.50
2019-04-22T07:57:11.700Z,46.00
2019-04-22T07:59:30.392Z,46.00
2019-04-22T08:02:04.258Z,45.80
2019-04-22T08:04:50.838Z,46.30
2019-04-22T08:07:03.872Z,47.10
2019-04-22T08:09:37.325Z,45.70
2019-04-22T08:11:58.117Z,45.10
2019-04-22T08:14:34.588Z,46.30
2019-04-22T08:17:17.220Z,45.60
2019-04-22T08:19:40.480Z,44.90
2019-04-22T08:22:03.719Z,45.70
2019-04-22T08:24:35.581Z,44.80
2019-04-22T08:27:04.567Z,44.20
2019-04-22T08:29:46.099Z,44.70
2019-04-22T08:32:05.106Z,43.40
2019-04-22T08:34:34.246Z,43.90
2019-04-22T08:37:41.927Z,42.80
2019-04-22T08:39:35.898Z,43.10
2019-04-22T08:42:16.218Z,43.40
2019-04-22T08:49:50.734Z,41.00
2019-04-22T08:52:17.621Z,41.70
2019-04-22T08:54:44.230Z,41.50
2019-04-22T08:57:11.132Z,42.20
2019-04-22T08:59:43.579Z,40.90
2019-04-22T09:02:19.896Z,39.80
2019-04-22T09:04:42.131Z,37.90
2019-04-22T09:07:20.924Z,38.80
2019-04-22T09:09:47.275Z,38.60
2019-04-22T09:12:15.934Z,38.00
2019-04-22T09:17:14.673Z,33.70
2019-04-22T09:19:43.646Z,32.90
2019-04-22T09:22:26.378Z,34.00
2019-04-22T09:29:43.244Z,34.50
2019-04-22T09:32:20.270Z,34.00
2019-04-22T09:34:46.978Z,34.00
2019-04-22T09:37:20.695Z,34.90
2019-04-22T09:39:51.858Z,36.80
2019-04-22T09:42:17.237Z,35.20
2019-04-22T09:44:47.707Z,34.90
2019-04-22T09:47:19.655Z,33.80
2019-04-22T09:50:03.799Z,34.20
2019-04-22T09:52:16.994Z,35.30
2019-04-22T09:54:57.899Z,35.00
2019-04-22T09:57:20.388Z,35.20
2019-04-22T09:59:52.528Z,35.50
2019-04-22T10:04:55.118Z,35.10
2019-04-22T10:07:20.967Z,34.30
2019-04-22T10:10:00.227Z,34.60
2019-04-22T10:12:26.381Z,34.70
2019-04-22T10:14:50.870Z,35.10
2019-04-22T10:17:21.761Z,34.70
2019-04-22T10:19:49.449Z,35.30
2019-04-22T10:22:29.144Z,35.50
2019-04-22T10:24:54.970Z,35.90
2019-04-22T10:27:23.377Z,36.10
2019-04-22T10:29:56.564Z,36.20
2019-04-22T10:32:20.570Z,36.30
2019-04-22T10:34:36.035Z,34.60
2019-04-22T10:37:02.489Z,34.10
2019-04-22T10:39:36.596Z,35.30
2019-04-22T10:41:58.760Z,35.60
2019-04-22T10:44:28.790Z,36.20
2019-04-22T10:46:58.043Z,36.20
2019-04-22T10:49:26.720Z,36.30
2019-04-22T10:51:55.222Z,36.30
2019-04-22T10:54:23.670Z,35.70
2019-04-22T10:56:52.800Z,35.50
2019-04-22T10:59:22.603Z,34.50
2019-04-22T11:01:52.625Z,34.90
2019-04-22T11:04:21.690Z,35.70
2019-04-22T11:06:55.575Z,35.50
2019-04-22T11:09:23.361Z,35.00
2019-04-22T11:11:59.430Z,34.60
2019-04-22T11:14:21.100Z,34.90
2019-04-22T11:16:49.792Z,34.60
2019-04-22T11:19:19.420Z,34.60
2019-04-22T11:22:00.997Z,34.80
2019-04-22T11:24:18.854Z,35.00
2019-04-22T11:26:47.404Z,34.40
2019-04-22T11:29:17.297Z,33.90
2019-04-22T11:31:46.475Z,33.90
2019-04-22T11:34:15.385Z,34.30
2019-04-22T11:36:45.008Z,34.40
2019-04-22T11:39:15.456Z,34.70
2019-04-22T11:41:44.380Z,35.00
2019-04-22T11:44:12.902Z,35.80
2019-04-22T11:46:41.360Z,35.80
2019-04-22T11:49:09.959Z,35.70
2019-04-22T11:51:38.483Z,35.90
2019-04-22T11:54:07.227Z,36.80
2019-04-22T11:56:36.959Z,37.00
2019-04-22T11:59:06.753Z,36.80
2019-04-22T12:01:37.005Z,36.10
2019-04-22T12:04:07.453Z,36.40
2019-04-22T12:06:36.200Z,36.40
2019-04-22T12:09:10.104Z,36.90
2019-04-22T12:11:38.595Z,36.30
2019-04-22T12:14:07.321Z,36.00
2019-04-22T12:16:37.139Z,35.90
2019-04-22T12:19:07.039Z,36.70
2019-04-22T12:21:37.044Z,37.00
2019-04-22T12:24:05.677Z,37.50
2019-04-22T12:26:34.550Z,37.80
2019-04-22T12:29:04.698Z,37.40
2019-04-22T12:31:33.592Z,37.40
2019-04-22T12:34:03.551Z,37.00
2019-04-22T12:36:32.798Z,37.60
2019-04-22T12:39:01.302Z,37.70
2019-04-22T12:41:31.016Z,39.70
2019-04-22T12:44:01.011Z,37.30
2019-04-22T12:46:30.129Z,37.00
2019-04-22T12:49:00.213Z,37.00
2019-04-22T12:51:29.245Z,37.40
2019-04-22T12:53:59.407Z,38.10
2019-04-22T12:56:27.998Z,37.40
2019-04-22T12:58:56.480Z,36.90
2019-04-22T13:01:24.915Z,37.00
2019-04-22T13:03:58.564Z,37.00
2019-04-22T13:06:23.707Z,37.10
2019-04-22T13:08:54.626Z,37.10
2019-04-22T13:11:29.951Z,36.50
2019-04-22T13:13:54.661Z,37.30
2019-04-22T13:16:24.970Z,36.70
2019-04-22T13:18:59.265Z,35.90
2019-04-22T13:21:24.636Z,36.00
2019-04-22T13:23:53.239Z,35.60
2019-04-22T13:26:23.198Z,35.40
2019-04-22T13:28:51.799Z,35.50
2019-04-22T13:31:20.874Z,35.90
2019-04-22T13:33:51.636Z,36.00
2019-04-22T13:36:23.665Z,35.80
2019-04-22T13:38:51.309Z,36.10
2019-04-22T13:43:51.023Z,36.40
2019-04-22T13:46:20.054Z,36.40
2019-04-22T13:49:19.486Z,36.90
2019-04-22T13:51:54.991Z,36.80
2019-04-22T13:54:14.068Z,36.50
2019-04-22T13:54:47.112Z,36.60
2019-04-22T13:56:40.310Z,37.30
2019-04-22T13:59:01.911Z,37.10
2019-04-22T14:01:24.847Z,36.50
2019-04-22T14:03:56.506Z,37.00
2019-04-22T14:06:25.190Z,36.90
2019-04-22T14:08:53.662Z,36.90
2019-04-22T14:11:34.404Z,37.10
2019-04-22T14:13:52.238Z,37.70
2019-04-22T14:16:21.018Z,37.80
2019-04-22T14:18:49.775Z,37.00
2019-04-22T14:21:18.825Z,37.30
2019-04-22T14:23:48.672Z,37.50
2019-04-22T14:26:17.556Z,37.80
2019-04-22T14:28:46.199Z,37.50
2019-04-22T14:31:14.840Z,37.90
2019-04-22T14:33:46.684Z,37.20
2019-04-22T14:36:15.107Z,38.00
2019-04-22T14:38:43.945Z,38.30
2019-04-22T14:41:34.239Z,37.30
2019-04-22T14:44:49.689Z,37.10
2019-04-22T14:46:39.209Z,38.40
2019-04-22T14:49:06.781Z,36.90
2019-04-22T14:51:32.955Z,36.70
2019-04-22T14:54:03.060Z,35.60
2019-04-22T14:56:13.694Z,35.50
2019-04-22T14:58:42.726Z,35.70
2019-04-22T15:01:12.911Z,35.90
2019-04-22T15:03:44.000Z,35.30
2019-04-22T15:06:12.624Z,36.00
2019-04-22T15:08:42.707Z,35.90
2019-04-22T15:11:13.014Z,35.90
2019-04-22T15:13:43.305Z,36.80
2019-04-22T15:16:20.133Z,36.20
2019-04-22T15:18:53.796Z,36.40
2019-04-22T15:21:24.871Z,36.90
2019-04-22T15:23:53.604Z,35.70
2019-04-22T15:26:24.324Z,36.00
2019-04-22T15:28:53.529Z,36.40
2019-04-22T15:31:23.589Z,37.10
2019-04-22T15:33:52.438Z,36.60
2019-04-22T15:36:22.147Z,36.80
2019-04-22T15:38:51.318Z,35.40
2019-04-22T15:41:22.790Z,35.70
2019-04-22T15:43:52.045Z,36.00
2019-04-22T15:46:20.734Z,36.40
2019-04-22T15:48:49.629Z,36.90
2019-04-22T15:51:18.533Z,37.20
2019-04-22T15:53:47.586Z,37.90
2019-04-22T15:56:16.843Z,38.00
2019-04-22T15:58:46.067Z,38.00
2019-04-22T16:01:21.721Z,38.10
2019-04-22T16:03:44.946Z,37.60
2019-04-22T16:06:13.393Z,36.90
2019-04-22T16:08:42.072Z,37.10
2019-04-22T16:11:13.814Z,37.10
2019-04-22T16:13:42.486Z,36.90
2019-04-22T16:16:12.369Z,37.30
2019-04-22T16:18:42.200Z,37.30
2019-04-22T16:21:11.314Z,37.60
2019-04-22T16:23:42.400Z,37.70
2019-04-22T16:26:20.109Z,37.60
2019-04-22T16:28:49.371Z,37.50
2019-04-22T16:31:19.545Z,37.40
2019-04-22T16:33:48.242Z,38.00
2019-04-22T16:36:18.523Z,38.30
2019-04-22T16:38:48.940Z,38.60
2019-04-22T16:41:18.833Z,38.90
2019-04-22T16:43:48.745Z,39.10
2019-04-22T16:46:17.341Z,39.50
2019-04-22T16:48:45.794Z,39.30
2019-04-22T16:51:16.027Z,39.70
2019-04-22T16:53:45.223Z,39.80
2019-04-22T16:56:15.036Z,41.00
2019-04-22T16:58:44.026Z,40.70
2019-04-22T17:01:26.457Z,40.80
2019-04-22T17:04:16.414Z,41.10
2019-04-22T17:06:49.778Z,41.50
2019-04-22T17:09:19.542Z,41.30
2019-04-22T17:11:49.755Z,41.50
2019-04-22T17:14:27.216Z,41.70
2019-04-22T17:16:48.664Z,42.10
2019-04-22T17:19:17.502Z,42.10
2019-04-22T17:21:46.064Z,42.60
2019-04-22T17:24:14.503Z,43.00
2019-04-22T17:26:44.172Z,43.20
2019-04-22T17:29:12.865Z,43.80
2019-04-22T17:31:48.442Z,43.40
2019-04-22T17:34:13.871Z,44.60
2019-04-22T17:36:42.571Z,44.90
2019-04-22T17:39:24.802Z,45.10
2019-04-22T17:41:59.406Z,44.90
2019-04-22T17:44:38.999Z,45.00
2019-04-22T17:46:58.492Z,44.40
2019-04-22T17:49:46.008Z,44.30
2019-04-22T17:54:50.288Z,44.70
2019-04-22T17:57:21.622Z,45.00
2019-04-22T17:59:50.610Z,45.30
2019-04-22T18:02:22.548Z,45.60
2019-04-22T18:04:45.705Z,45.80
2019-04-22T18:07:31.583Z,45.90
2019-04-22T18:12:33.585Z,46.30
2019-04-22T18:17:32.114Z,46.30
2019-04-22T18:19:54.713Z,46.80
2019-04-22T18:22:21.842Z,46.90
2019-04-22T18:24:54.122Z,47.10
2019-04-22T18:29:57.421Z,47.70
2019-04-22T18:32:25.702Z,47.90
2019-04-22T18:34:52.948Z,48.70
2019-04-22T18:37:24.911Z,48.40
2019-04-22T18:40:05.051Z,48.50
2019-04-22T18:42:26.963Z,48.60
2019-04-22T18:45:12.827Z,48.90
2019-04-22T18:47:29.464Z,49.20
2019-04-22T18:50:00.787Z,49.50
2019-04-22T18:52:48.825Z,50.40
2019-04-22T18:55:30.875Z,49.90
2019-04-22T18:58:02.562Z,50.10
2019-04-22T19:00:21.367Z,50.40
2019-04-22T19:02:58.482Z,50.60
2019-04-22T19:05:40.185Z,50.70
2019-04-22T19:08:18.461Z,50.80
2019-04-22T19:13:45.188Z,51.10
2019-04-22T19:15:54.175Z,51.40
2019-04-22T19:18:24.470Z,51.50
2019-04-22T19:20:53.487Z,51.50
2019-04-22T19:23:20.982Z,51.80
2019-04-22T19:25:42.367Z,51.80
2019-04-22T19:28:27.675Z,52.00
2019-04-22T19:30:50.781Z,52.20
2019-04-22T19:33:23.914Z,52.30
2019-04-22T19:35:43.099Z,52.60
2019-04-22T19:38:14.082Z,52.70
2019-04-22T19:41:03.123Z,52.90
2019-04-22T19:43:28.754Z,53.20
2019-04-22T19:45:55.760Z,52.90
2019-04-22T19:48:33.236Z,53.50
2019-04-22T19:51:04.253Z,53.70
2019-04-22T19:53:29.732Z,53.90
2019-04-22T19:55:53.894Z,54.00
2019-04-22T19:58:28.031Z,54.20
2019-04-22T20:00:52.049Z,54.30
2019-04-22T20:03:56.286Z,54.40
2019-04-22T20:06:27.147Z,54.60
2019-04-22T20:08:59.622Z,54.90
2019-04-22T20:11:29.917Z,54.90
2019-04-22T20:14:02.570Z,55.00
2019-04-22T20:16:27.406Z,55.30
2019-04-22T20:19:06.524Z,55.50
2019-04-22T20:21:35.380Z,55.60
2019-04-22T20:23:55.227Z,56.20
2019-04-22T20:26:40.708Z,55.90
2019-04-22T20:29:02.754Z,56.10
2019-04-22T20:31:33.487Z,56.30
2019-04-22T20:34:09.141Z,56.40
2019-04-22T20:36:51.951Z,56.60
2019-04-22T20:38:59.573Z,57.50
2019-04-22T20:41:30.992Z,57.00
2019-04-22T20:44:11.028Z,57.10
2019-04-22T20:46:29.580Z,57.20
2019-04-22T20:49:05.005Z,57.50
2019-04-22T20:51:47.682Z,57.50
2019-04-22T20:54:07.742Z,57.80
2019-04-22T20:56:34.214Z,58.10
2019-04-22T20:59:01.697Z,58.30
2019-04-22T21:01:34.400Z,58.40
2019-04-22T21:03:54.804Z,58.40
2019-04-22T21:06:36.815Z,58.60
2019-04-22T21:09:12.159Z,58.70
2019-04-22T21:11:38.548Z,58.80
2019-04-22T21:14:12.883Z,58.80
2019-04-22T21:16:49.375Z,58.90
2019-04-22T21:19:29.685Z,58.80
2019-04-22T21:21:54.661Z,58.70
2019-04-22T21:24:20.534Z,58.80
2019-04-22T21:26:47.131Z,59.00
2019-04-22T21:29:16.053Z,59.10
2019-04-22T21:31:51.308Z,59.00
2019-04-22T21:34:20.611Z,59.20
2019-04-22T21:37:02.629Z,59.20
2019-04-22T21:39:23.675Z,59.20
2019-04-22T21:41:52.846Z,59.30
2019-04-22T21:44:26.130Z,59.20
2019-04-22T21:47:03.361Z,59.30
2019-04-22T21:49:32.535Z,59.30
2019-04-22T21:52:01.655Z,59.40
2019-04-22T21:54:31.608Z,59.60
2019-04-22T21:59:47.015Z,59.90
2019-04-22T22:02:28.463Z,60.10
2019-04-22T22:04:52.788Z,60.20
2019-04-22T22:07:11.988Z,60.50
2019-04-22T22:09:54.248Z,60.70
2019-04-22T22:12:26.509Z,61.00
2019-04-22T22:15:02.945Z,61.00
2019-04-22T22:17:22.337Z,61.20
2019-04-22T22:19:55.603Z,61.30
2019-04-22T22:22:42.275Z,61.40
2019-04-22T22:24:56.511Z,61.50
2019-04-22T22:27:25.095Z,61.50
2019-04-22T22:30:06.739Z,61.60
2019-04-22T22:32:29.925Z,61.90
2019-04-22T22:35:00.421Z,61.80
2019-04-22T22:37:16.899Z,62.00
2019-04-22T22:39:51.388Z,62.10
2019-04-22T22:42:24.572Z,62.40
2019-04-22T22:44:48.119Z,62.50
2019-04-22T22:47:30.476Z,62.70
2019-04-22T22:50:03.041Z,62.70
2019-04-22T22:55:04.414Z,63.10
2019-04-22T23:00:04.979Z,63.30
2019-04-22T23:02:36.807Z,63.20
2019-04-22T23:05:06.144Z,63.30
2019-04-22T23:07:37.399Z,63.40
2019-04-22T23:10:07.944Z,63.50
2019-04-22T23:12:44.110Z,63.40
2019-04-22T23:15:06.170Z,63.80
2019-04-22T23:17:21.438Z,63.90
2019-04-22T23:19:51.635Z,63.80
2019-04-22T23:22:22.985Z,64.00
2019-04-22T23:25:14.898Z,64.10
2019-04-22T23:27:34.158Z,65.10
2019-04-22T23:30:01.224Z,64.50
2019-04-22T23:32:35.246Z,64.70
2019-04-22T23:35:16.699Z,65.10
2019-04-22T23:37:47.527Z,65.10
2019-04-22T23:40:24.671Z,65.40
2019-04-22T23:42:52.907Z,65.60
2019-04-22T23:45:22.099Z,65.70
2019-04-22T23:47:42.410Z,65.70
2019-04-22T23:50:24.457Z,65.60
2019-04-22T23:52:54.386Z,65.60
2019-04-22T23:55:22.893Z,65.70
2019-04-22T23:57:52.941Z,66.10
